INDIA METEOROLOGICAL DEPARTMENT, R.M.C. NEW DELHI
Dated:23 - 4 - 2017
METARS


Ahmedabad  
VAAH 231730Z 22008KT 4000 FU NSC 30/20 Q1007 NOSIG=
Amritsar   
VIAR 231730Z 20003KT 3000 TSRA SCT030 FEW035CB BKN090 22/15 Q1007 NOSIG=
Bangalore  
VOBL 231730Z VRB02KT 8000 FEW015 26/15 Q1014 NOSIG=
Bhopal     
VABP 231730Z 24008KT 6000 NSC 30/12 Q1009 NOSIG=
Bhubaneswar
VEBS 231730Z 20012KT 3000 HZ SCT018 28/27 Q1004 NOSIG =
Chennai    
VOMM 231730Z 16006KT 6000 SCT020 31/26 Q1008 NOSIG=
Coimbatore 
VOCB 231730Z 20007KT 6000 FEW015 28/24 Q1011 NOSIG=
Colombo    
VCBI 231710Z 23008KT 200V280 9999 SCT018 30/25 Q1011 NOSIG=
Delhi      
VIDP 231730Z 00000KT 3000 HZ FEW040 34/12 Q1004 NOSIG=
Gauhati    
VEGT 231730Z NIL=
Gaya       
VEGY 231730Z NIL=
Hyderabad  
VOHS 231730Z 15004KT 6000 NSC 28/15 Q1011 NOSIG=
Jaipur     
VIJP 231730Z 30007KT 4000 HZ SCT040 33/06 Q1006 NOSIG=
Kochi      
VOCI 231730Z VRB03KT 5000 HZ FEW015 28/25 Q1010 NOSIG=
Kolkata    
VECC 231730Z 19008KT 2800 HZ SCT018 BKN090 26/24 Q1005 NOSIG=
Kozhikode  
VOCL 231730Z 33003KT 6000 SCT015 BKN090 30/25 Q1010 NOSIG=
Lucknow    
VILK 231730Z 03003KT 2000 HZ SCT018 FEW030CB BKN100 33/16 Q1003=
Madurai    
VOMD 231730Z 00000KT 6000 SCT018 SCT100 28/24 Q1010 NOSIG=
Mumbai     
VABB 231730Z 24006KT 3500 HZ FEW020 SCT025 29/22 Q1010 NOSIG=
Nagpur     
VANP 231730Z 29002KT 6000 NSC 32/03 Q1007 NOSIG=
Patna      
VEPT 231730Z NIL=
Ranchi     
VERC 231700Z 11003KT 3000 HZ FEW018 BKN100 28/15 Q1008 NOSIG=
Trichy     
VOTR 231730Z 19003KT 3000 HZ FEW018 31/24 Q1007 NOSIG=
Trivandrum 
VOTV 231730Z 31004KT 4000 HZ SCT015 30/26 Q1010 NOSIG=
Varanasi   
VEBN 231730Z VRB02KT 3000 HZ NSC 26/18 Q1004=
Vizag      
VOVZ 231600Z 23008KT 4000 BR FEW016 BKN090 30/26 Q1005 NOSIG=
Male       
VRMM 231700Z 24007KT 9999 FEW018 30/26 Q1012 NOSIG=
Gan        
VRMG 231700Z 23003KT 9999 FEW018 29/25 Q1012 NOSIG=
Kathmandu  
VNKT 231730Z NIL=
Dhaka      
VGHS 231730Z 19012KT 2000 TSRA BKN008 FEW025CB OVC080 22/21 Q1007 TEMPO TSRA=
Colombo    
VCBI 231710Z 23008KT 200V280 9999 SCT018 30/25 Q1011 NOSIG=
Karachi    
OPKC 231725Z 21006KT 6000 BKN020 28/22 Q1007 NOSIG=
Lahore     
OPLA 231725Z 33011KT 4000 -TSRA FEW030CB SCT040 BKN100 23/17 Q1006/A29.75=
Jodhpur    
VIJO 231730Z 23011 6000 SKC 32/16 Q1006 NOSIG=
Bhuj-Rudra 
VABJ 231630Z 22007KT 6000 SKC 27/21 Q1008 NOSIG=
Gwalior    
VIGR 231730Z VRB02KT 6000 SKC 31/13 Q1004 NOSIG=
Pune       
VAPO 231730Z 28007KT 6000 SKC 25/18 Q1014 NOSIG=